createdAt,value
2019-04-23T00:00:14.038Z,11.14
2019-04-23T00:03:21.060Z,11.18
2019-04-23T00:06:36.498Z,11.10
2019-04-23T00:09:40.958Z,11.04
2019-04-23T00:12:47.801Z,11.04
2019-04-23T00:16:24.862Z,11.00
2019-04-23T00:19:16.969Z,10.99
2019-04-23T00:22:53.347Z,10.86
2019-04-23T00:26:10.610Z,10.89
2019-04-23T00:29:32.622Z,10.89
2019-04-23T00:35:41.684Z,10.88
2019-04-23T00:38:44.720Z,10.86
2019-04-23T00:41:57.436Z,10.68
2019-04-23T00:45:00.307Z,10.76
2019-04-23T00:48:15.039Z,10.71
2019-04-23T00:51:18.863Z,10.76
2019-04-23T00:54:32.666Z,10.70
2019-04-23T00:57:43.958Z,10.71
2019-04-23T01:00:55.731Z,10.76
2019-04-23T01:03:55.114Z,10.53
2019-04-23T01:07:06.941Z,10.54
2019-04-23T01:10:19.961Z,10.51
2019-04-23T01:13:40.074Z,10.50
2019-04-23T01:16:32.869Z,10.64
2019-04-23T01:19:57.737Z,10.49
2019-04-23T01:22:46.431Z,10.52
2019-04-23T01:26:02.054Z,10.69
2019-04-23T01:29:29.186Z,10.68
2019-04-23T01:32:38.262Z,10.64
2019-04-23T01:35:55.193Z,10.53
2019-04-23T01:38:58.521Z,10.51
2019-04-23T01:42:08.487Z,10.49
2019-04-23T01:45:14.960Z,10.49
2019-04-23T01:48:13.183Z,10.52
2019-04-23T01:51:32.338Z,10.42
2019-04-23T01:54:38.235Z,10.43
2019-04-23T01:57:46.924Z,10.43
2019-04-23T02:01:08.686Z,10.37
2019-04-23T02:04:04.859Z,10.51
2019-04-23T02:07:15.499Z,10.34
2019-04-23T02:10:20.536Z,10.28
2019-04-23T02:13:32.363Z,10.27
2019-04-23T02:16:39.132Z,10.33
2019-04-23T02:19:46.739Z,10.26
2019-04-23T02:23:04.870Z,10.35
2019-04-23T02:26:05.910Z,10.23
2019-04-23T02:32:31.812Z,10.31
2019-04-23T02:35:50.670Z,10.24
2019-04-23T02:45:04.728Z,10.34
2019-04-23T02:51:21.652Z,10.27
2019-04-23T02:57:36.998Z,10.49
2019-04-23T03:01:03.623Z,10.38
2019-04-23T03:10:08.191Z,10.41
2019-04-23T03:13:31.774Z,10.50
2019-04-23T03:16:49.919Z,10.43
2019-04-23T03:20:15.810Z,10.18
2019-04-23T03:29:43.427Z,10.44
2019-04-23T03:32:51.890Z,10.28
2019-04-23T03:38:52.008Z,10.29
2019-04-23T03:42:24.723Z,10.31
2019-04-23T03:48:32.302Z,10.29
2019-04-23T03:51:34.130Z,10.28
2019-04-23T03:54:58.276Z,10.15
2019-04-23T03:57:47.380Z,10.18
2019-04-23T04:01:07.259Z,10.19
2019-04-23T04:04:31.862Z,10.13
2019-04-23T04:10:25.641Z,10.18
2019-04-23T04:13:40.229Z,10.27
2019-04-23T04:19:56.917Z,10.06
2019-04-23T04:23:07.860Z,10.27
2019-04-23T04:26:09.548Z,10.22
2019-04-23T04:32:17.549Z,10.08
2019-04-23T04:35:38.256Z,10.22
2019-04-23T04:42:06.218Z,10.37
2019-04-23T04:45:07.492Z,10.41
2019-04-23T04:48:02.581Z,10.33
2019-04-23T04:51:18.863Z,10.46
2019-04-23T04:57:36.500Z,10.51
2019-04-23T05:04:00.318Z,10.49
2019-04-23T05:07:02.613Z,10.70
2019-04-23T05:16:19.300Z,10.82
2019-04-23T05:19:35.331Z,10.85
2019-04-23T05:22:49.325Z,10.92
2019-04-23T05:25:44.971Z,10.99
2019-04-23T05:32:02.873Z,11.14
2019-04-23T05:35:10.009Z,11.17
2019-04-23T05:38:30.849Z,11.25
2019-04-23T05:44:50.198Z,11.37
2019-04-23T05:47:47.058Z,11.46
2019-04-23T05:50:59.161Z,11.53
2019-04-23T05:53:58.432Z,11.63
2019-04-23T05:57:06.901Z,11.66
2019-04-23T06:00:19.324Z,11.69
2019-04-23T06:03:24.454Z,11.75
2019-04-23T06:09:39.359Z,11.91
2019-04-23T06:12:56.061Z,11.96
2019-04-23T06:16:01.386Z,12.07
2019-04-23T06:19:08.003Z,12.06
2019-04-23T06:22:26.874Z,12.03
2019-04-23T06:25:42.099Z,12.16
2019-04-23T06:31:45.982Z,12.17
2019-04-23T06:34:50.170Z,12.34
2019-04-23T06:41:09.972Z,12.48
2019-04-23T06:47:24.858Z,12.66
2019-04-23T06:50:47.632Z,12.57
2019-04-23T06:53:43.099Z,12.66
2019-04-23T06:57:05.096Z,12.81
2019-04-23T07:00:19.771Z,12.53
2019-04-23T07:03:14.860Z,12.84
2019-04-23T07:06:25.015Z,12.65
2019-04-23T07:09:20.636Z,12.69
2019-04-23T07:12:38.916Z,12.84
2019-04-23T07:15:45.851Z,12.97
2019-04-23T07:19:12.798Z,12.96
2019-04-23T07:22:08.209Z,13.09
2019-04-23T07:25:08.404Z,13.06
2019-04-23T07:28:17.953Z,13.08
2019-04-23T07:31:44.610Z,13.11
2019-04-23T07:34:31.815Z,13.20
2019-04-23T07:37:47.473Z,13.15
2019-04-23T07:40:48.220Z,13.31
2019-04-23T07:44:18.907Z,13.23
2019-04-23T07:47:21.749Z,13.46
2019-04-23T07:53:39.988Z,13.52
2019-04-23T07:56:54.272Z,13.62
2019-04-23T07:59:54.448Z,13.56
2019-04-23T08:03:14.294Z,13.68
2019-04-23T08:06:10.092Z,13.76
2019-04-23T08:09:17.414Z,13.91
2019-04-23T08:12:32.007Z,13.87
2019-04-23T08:15:38.104Z,13.83
2019-04-23T08:18:49.236Z,13.69
2019-04-23T08:21:58.240Z,14.02
2019-04-23T08:25:17.821Z,13.98
2019-04-23T08:32:00.649Z,14.40
2019-04-23T08:38:12.313Z,14.80
2019-04-23T08:41:14.276Z,14.81
2019-04-23T08:44:21.594Z,14.66
2019-04-23T08:47:26.254Z,15.06
2019-04-23T08:50:40.799Z,15.21
2019-04-23T08:53:40.990Z,14.82
2019-04-23T08:56:55.060Z,14.70
2019-04-23T08:59:56.074Z,14.73
2019-04-23T09:03:11.202Z,15.37
2019-04-23T09:09:27.486Z,15.36
2019-04-23T09:12:36.661Z,15.42
2019-04-23T09:15:44.539Z,15.65
2019-04-23T09:18:47.306Z,15.15
2019-04-23T09:22:03.834Z,15.58
2019-04-23T09:25:14.752Z,15.68
2019-04-23T09:28:21.137Z,15.56
2019-04-23T09:32:02.305Z,15.75
2019-04-23T09:35:02.509Z,15.51
2019-04-23T09:38:23.730Z,15.66
2019-04-23T09:41:31.197Z,16.02
2019-04-23T09:48:26.598Z,16.05
2019-04-23T09:51:27.796Z,16.41
2019-04-23T09:54:34.266Z,16.13
2019-04-23T09:57:46.501Z,16.68
2019-04-23T10:01:00.887Z,16.36
2019-04-23T10:03:47.818Z,16.16
2019-04-23T10:06:56.348Z,16.43
2019-04-23T10:09:49.829Z,16.13
2019-04-23T10:12:58.144Z,16.13
2019-04-23T10:16:06.912Z,16.19
2019-04-23T10:19:15.174Z,16.06
2019-04-23T10:22:23.048Z,15.83
2019-04-23T10:25:30.189Z,15.82
2019-04-23T10:28:45.606Z,16.23
2019-04-23T10:31:53.464Z,16.05
2019-04-23T10:35:10.329Z,16.06
2019-04-23T10:38:14.272Z,16.17
2019-04-23T10:41:18.344Z,16.33
2019-04-23T10:44:44.362Z,16.85
2019-04-23T10:51:51.638Z,16.40
2019-04-23T10:55:03.000Z,17.16
2019-04-23T10:58:08.465Z,17.47
2019-04-23T11:01:36.312Z,17.76
2019-04-23T11:04:44.742Z,18.11
2019-04-23T11:10:44.284Z,16.90
2019-04-23T11:13:54.884Z,16.62
2019-04-23T11:17:04.270Z,17.27
2019-04-23T11:20:16.984Z,16.89
2019-04-23T11:23:12.707Z,16.81
2019-04-23T11:29:40.859Z,16.81
2019-04-23T11:36:02.454Z,16.92
2019-04-23T11:42:14.464Z,17.37
2019-04-23T11:45:24.853Z,17.33
2019-04-23T11:51:46.056Z,17.57
2019-04-23T11:57:59.233Z,18.07
2019-04-23T12:04:48.066Z,18.66
2019-04-23T12:08:17.492Z,18.91
2019-04-23T12:14:46.824Z,19.04
2019-04-23T12:18:00.449Z,18.89
2019-04-23T12:21:20.084Z,18.84
2019-04-23T12:24:42.063Z,18.51
2019-04-23T12:27:31.373Z,18.35
2019-04-23T12:30:50.694Z,18.77
2019-04-23T12:33:53.626Z,18.68
2019-04-23T12:36:54.609Z,18.34
2019-04-23T12:43:12.938Z,18.70
2019-04-23T12:46:24.076Z,18.89
2019-04-23T12:52:35.865Z,18.78
2019-04-23T12:58:46.438Z,18.75
2019-04-23T13:02:29.128Z,18.92
2019-04-23T13:05:12.442Z,18.64
2019-04-23T13:08:26.832Z,18.62
2019-04-23T13:11:30.188Z,18.45
2019-04-23T13:14:41.723Z,18.66
2019-04-23T13:17:50.365Z,18.58
2019-04-23T13:20:51.368Z,18.36
2019-04-23T13:24:15.688Z,19.00
2019-04-23T13:27:28.994Z,19.20
2019-04-23T13:33:47.125Z,18.69
2019-04-23T13:37:05.197Z,18.68
2019-04-23T13:40:09.268Z,18.37
2019-04-23T13:46:20.055Z,18.79
2019-04-23T13:49:33.312Z,18.78
2019-04-23T13:55:49.923Z,19.04
2019-04-23T13:59:09.494Z,19.24
2019-04-23T14:02:24.058Z,19.25
2019-04-23T14:05:28.234Z,18.95
2019-04-23T14:11:54.975Z,18.55
2019-04-23T14:15:12.859Z,18.93
2019-04-23T14:18:29.099Z,18.43
2019-04-23T14:27:26.910Z,19.09
2019-04-23T14:33:58.031Z,19.14
2019-04-23T14:36:57.783Z,19.20
2019-04-23T14:40:22.216Z,19.26
2019-04-23T14:43:25.765Z,19.05
2019-04-23T14:46:41.278Z,19.10
2019-04-23T14:49:58.818Z,18.92
2019-04-23T14:52:56.945Z,18.54
2019-04-23T14:59:19.806Z,18.85
2019-04-23T15:02:28.779Z,18.90
2019-04-23T15:05:33.933Z,18.25
2019-04-23T15:15:06.321Z,17.95
2019-04-23T15:18:13.195Z,17.66
2019-04-23T15:27:35.965Z,17.80
2019-04-23T15:30:47.358Z,17.83
2019-04-23T15:34:03.763Z,17.85
2019-04-23T15:37:20.325Z,17.67
2019-04-23T15:43:17.223Z,17.71
2019-04-23T15:46:32.704Z,17.51
2019-04-23T15:49:35.335Z,17.34
2019-04-23T15:52:54.419Z,17.32
2019-04-23T15:55:59.465Z,17.33
2019-04-23T15:59:19.116Z,17.09
2019-04-23T16:01:43.887Z,17.06
2019-04-23T16:04:51.262Z,17.29
2019-04-23T16:08:25.918Z,17.22
2019-04-23T16:11:44.158Z,16.87
2019-04-23T16:15:06.562Z,16.85
2019-04-23T16:18:26.478Z,16.89
2019-04-23T16:21:29.189Z,16.65
2019-04-23T16:24:22.255Z,16.33
2019-04-23T16:27:34.807Z,16.29
2019-04-23T16:30:59.565Z,16.34
2019-04-23T16:34:19.475Z,16.32
2019-04-23T16:37:20.042Z,16.26
2019-04-23T16:40:36.291Z,16.14
2019-04-23T16:43:40.863Z,15.82
2019-04-23T16:46:54.218Z,15.72
2019-04-23T16:50:04.977Z,15.68
2019-04-23T16:53:11.549Z,15.80
2019-04-23T16:56:18.373Z,15.53
2019-04-23T17:05:40.947Z,15.45
2019-04-23T17:09:03.581Z,15.35
2019-04-23T17:15:17.784Z,14.90
2019-04-23T17:24:48.852Z,14.68
2019-04-23T17:28:07.161Z,14.81
2019-04-23T17:31:26.242Z,14.69
2019-04-23T17:34:24.341Z,14.71
2019-04-23T17:37:29.908Z,14.50
2019-04-23T17:40:42.654Z,14.47
2019-04-23T17:44:00.230Z,14.25
2019-04-23T17:47:20.446Z,14.16
2019-04-23T17:50:28.638Z,14.12
2019-04-23T17:53:42.533Z,14.05
2019-04-23T17:56:58.188Z,13.95
2019-04-23T18:00:10.015Z,13.89
2019-04-23T18:03:10.085Z,13.93
2019-04-23T18:06:21.387Z,13.67
2019-04-23T18:09:18.450Z,13.61
2019-04-23T18:12:39.173Z,13.53
2019-04-23T18:15:41.922Z,13.54
2019-04-23T18:25:26.159Z,13.26
2019-04-23T18:28:39.983Z,13.35
2019-04-23T18:35:15.506Z,12.97
2019-04-23T18:41:13.658Z,13.00
2019-04-23T18:44:36.377Z,13.12
2019-04-23T18:47:50.382Z,13.02
2019-04-23T18:57:13.041Z,12.62
2019-04-23T19:00:18.773Z,12.70
2019-04-23T19:03:37.571Z,12.82
2019-04-23T19:06:34.428Z,12.64
2019-04-23T19:13:35.662Z,12.75
2019-04-23T19:16:36.120Z,12.69
2019-04-23T19:19:40.397Z,12.75
2019-04-23T19:22:55.029Z,12.72
2019-04-23T19:25:51.448Z,12.56
2019-04-23T19:32:06.381Z,12.58
2019-04-23T19:35:43.901Z,12.56
2019-04-23T19:44:52.063Z,12.53
2019-04-23T19:48:09.356Z,12.50
2019-04-23T19:51:10.558Z,12.50
2019-04-23T19:54:25.193Z,12.45
2019-04-23T19:57:33.623Z,12.58
2019-04-23T20:00:55.419Z,12.44
2019-04-23T20:03:57.638Z,12.62
2019-04-23T20:07:12.364Z,12.46
2019-04-23T20:10:30.457Z,12.59
2019-04-23T20:13:19.331Z,12.43
2019-04-23T20:22:50.187Z,12.28
2019-04-23T20:32:05.779Z,12.37
2019-04-23T20:35:52.328Z,12.29
2019-04-23T20:39:02.610Z,12.28
2019-04-23T20:42:10.988Z,12.21
2019-04-23T20:45:16.515Z,12.24
2019-04-23T20:48:25.905Z,12.11
2019-04-23T20:51:33.500Z,12.19
2019-04-23T20:54:50.884Z,12.27
2019-04-23T20:57:45.155Z,12.23
2019-04-23T21:01:33.967Z,12.10
2019-04-23T21:04:44.958Z,12.07
2019-04-23T21:07:54.492Z,12.11
2019-04-23T21:10:43.004Z,12.05
2019-04-23T21:14:12.480Z,12.07
2019-04-23T21:17:04.157Z,11.78
2019-04-23T21:23:37.630Z,11.95
2019-04-23T21:26:39.821Z,11.88
2019-04-23T21:29:44.668Z,11.97
2019-04-23T21:33:15.805Z,11.88
2019-04-23T21:36:18.781Z,11.94
2019-04-23T21:39:40.691Z,11.98
2019-04-23T21:42:55.955Z,11.95
2019-04-23T21:46:11.746Z,11.83
2019-04-23T21:49:25.186Z,11.74
2019-04-23T21:52:11.457Z,11.78
2019-04-23T21:55:36.493Z,11.89
2019-04-23T22:04:52.765Z,11.88
2019-04-23T22:11:39.410Z,11.84
2019-04-23T22:14:16.958Z,11.89
2019-04-23T22:17:25.086Z,11.84
2019-04-23T22:20:34.164Z,11.82
2019-04-23T22:23:52.562Z,11.86
2019-04-23T22:26:45.001Z,11.81
2019-04-23T22:30:11.361Z,11.86
2019-04-23T22:36:15.034Z,11.97
2019-04-23T22:42:54.477Z,11.79
2019-04-23T22:45:43.063Z,11.73
2019-04-23T22:49:09.181Z,11.77
2019-04-23T22:58:09.598Z,11.84
2019-04-23T23:04:41.022Z,11.76
2019-04-23T23:20:26.708Z,11.55
2019-04-23T23:23:23.749Z,11.44
2019-04-23T23:26:54.502Z,11.53
2019-04-23T23:29:53.413Z,11.58
2019-04-23T23:32:57.101Z,11.54
2019-04-23T23:39:16.024Z,11.73
2019-04-23T23:42:18.081Z,11.63
2019-04-23T23:45:25.357Z,11.55
2019-04-23T23:48:35.957Z,11.68
2019-04-23T23:54:52.632Z,11.71
2019-04-23T23:58:11.065Z,11.76
